Nearby METAR Reports

 

KSJC - San Jose, California, USA
Distance from station: NO 14km
Opdateer: 16/08/2022 21:53
Helder
Helder
 Wind van varies
Wind: varies 7 km/h
Temperatuur: 32°C
Doupunt: 13°C
Humiditeit: 31%
Druk: 1008.8 hPa
Clouds: Helder
Visibility: 16 km
2022/08/16 19:53 KSJC 161953Z VRB04KT 10SM CLR 32/13 A2979 RMK AO2 SLP085 T03170128 $
KNUQ - Moffett Nas/Mtn, California, USA
Distance from station: N 14km
Opdateer: 16/08/2022 21:55
Helder
Helder
 Wind van N
Wind: N 11 km/h
Temperatuur: 28°C
Heat Index: 28°C
Doupunt: 16°C
Humiditeit: 48%
Druk: 1008.8 hPa
Clouds: Helder
Visibility: 13 km
2022/08/16 19:55 KNUQ 161955Z AUTO 35006KT 8SM CLR 28/16 A2979 RMK AO2
 
KPAO - Palo Alto, California, USA
Distance from station: NNW 23km
Opdateer: 16/08/2022 21:47
Helder
Helder
 Wind van N
Wind: N 15 km/h
Temperatuur: 26°C
Doupunt: 16°C
Humiditeit: 54%
Druk: 1009.1 hPa
Clouds: Helder
Visibility: 16 km
2022/08/16 19:47 KPAO 161947Z 01008KT 10SM SKC 26/16 A2980
KRHV - San Jose/Reid, California, USA
Distance from station: ONO 19km
Opdateer: 16/08/2022 21:47
Helder
Helder
 Wind van calm
Wind: Kalm
Temperatuur: 32°C
Doupunt: 12°C
Humiditeit: 29%
Druk: 1008.8 hPa
Clouds: Helder
Visibility: 16 km
2022/08/16 19:47 KRHV 161947Z 00000KT 10SM SKC 32/12 A2979
 
KOAK - Oakland, California, USA
Distance from station: NNW 50km
Opdateer: 16/08/2022 21:53
Helder
Helder
 Wind van WNW
Wind: WNW 15 km/h
Temperatuur: 27°C
Heat Index: 27°C
Doupunt: 14°C
Humiditeit: 45%
Druk: 1008.8 hPa
Clouds: Helder
Visibility: 16 km
2022/08/16 19:53 KOAK 161953Z 29008KT 10SM CLR 27/14 A2979 RMK AO2 SLP088 T02670139
KSQL - San Carlos Airpo, California, USA
Distance from station: NW 34km
Opdateer: 16/08/2022 21:47
Helder
Helder
 Wind van calm
Wind: Kalm
Temperatuur: 28°C
Heat Index: 28°C
Doupunt: 15°C
Humiditeit: 45%
Druk: 1009.1 hPa
Clouds: Helder
Visibility: 16 km
2022/08/16 19:47 KSQL 161947Z 00000KT 10SM CLR 28/15 A2980
 
KSFO - San Francisco, California, USA
Distance from station: NW 49km
Opdateer: 16/08/2022 21:56
Few Clouds
Few Clouds
 Wind van NNO
Wind: NNO 11 km/h
Temperatuur: 24°C
Doupunt: 16°C
Humiditeit: 61%
Druk: 1008.8 hPa
Clouds: Few Clouds
Visibility: 16 km
Cloud details: Few Clouds 183 m
2022/08/16 19:56 KSFO 161956Z 02006KT 10SM FEW006 24/16 A2979 RMK AO2 SLP087 T02390161
KE16 - San Martin, California, USA
Distance from station: OSO 43km
Opdateer: 16/08/2022 21:55
Helder
Helder
 Wind van calm
Wind: Kalm
Temperatuur: 34°C
Doupunt: 6°C
Humiditeit: 17%
Druk: 1009.1 hPa
Clouds: Helder
Visibility: 16 km
2022/08/16 19:55 KE16 161955Z AUTO 00000KT 10SM CLR 34/06 A2980 RMK AO2
 
KWVI - Watsonville, California, USA
Distance from station: SSO 44km
Opdateer: 16/08/2022 21:53
Helder
Helder
 Wind van S
Wind: S 17 km/h
Temperatuur: 23°C
Doupunt: 12°C
Humiditeit: 50%
Druk: 1010.2 hPa
Clouds: Helder
Visibility: 16 km
2022/08/16 19:53 KWVI 161953Z AUTO 18009KT 10SM CLR 23/12 A2983 RMK AO2 SLP101 T02280122
KHAF - Half Moon Bay, California, USA
Distance from station: WNW 50km
Opdateer: 16/08/2022 21:55
Mist, Gedeeltelik bewolk
Mist, Gedeeltelik bewolk
 Wind van SSO
Wind: SSO 13 km/h
Temperatuur: 15°C
Doupunt: 14°C
Humiditeit: 94%
Druk: 1010.5 hPa
Obsomming: Mist
Clouds: Gedeeltelik bewolk
Visibility: 8 km
Cloud details: Gedeeltelik bewolk 122 m
2022/08/16 19:55 KHAF 161955Z AUTO 16007KT 5SM BR SCT004 15/14 A2984 RMK AO2
 
KHWD - Hayward, California, USA
Distance from station: N 44km
Opdateer: 16/08/2022 21:54
Helder
Helder
 Wind van WNW
Wind: WNW 9 km/h
Temperatuur: 28°C
Heat Index: 28°C
Doupunt: 16°C
Humiditeit: 48%
Druk: 1008.8 hPa
Clouds: Helder
Visibility: 16 km
2022/08/16 19:54 KHWD 161954Z 29005KT 10SM CLR 28/16 A2979 RMK AO2 SLP095 T02830156
KLVK - Livermore, California, USA
Distance from station: NNO 51km
Opdateer: 16/08/2022 21:53
Helder
Helder
 Wind van calm
Wind: Kalm
Temperatuur: 37°C
Doupunt: 3°C
Humiditeit: 12%
Druk: 1008.1 hPa
Clouds: Helder
Visibility: 16 km
2022/08/16 19:53 KLVK 161953Z 00000KT 10SM CLR 37/03 A2977 RMK AO2 SLP076 T03720033 $